sensor_id;sensor_type;location;lat;lon;timestamp;P1;durP1;ratioP1;P2;durP2;ratioP2
50002;SDS011;35889;51.442;6.408;2022-08-01T00:01:27;0.70;;;0.70;;
50002;SDS011;35889;51.442;6.408;2022-08-01T00:03:52;0.60;;;0.60;;
50002;SDS011;35889;51.442;6.408;2022-08-01T00:06:18;0.60;;;0.60;;
50002;SDS011;35889;51.442;6.408;2022-08-01T00:08:43;0.70;;;0.70;;
50002;SDS011;35889;51.442;6.408;2022-08-01T00:11:08;0.70;;;0.70;;
50002;SDS011;35889;51.442;6.408;2022-08-01T00:13:34;0.70;;;0.70;;
50002;SDS011;35889;51.442;6.408;2022-08-01T00:15:59;0.70;;;0.70;;
50002;SDS011;35889;51.442;6.408;2022-08-01T00:18:25;0.60;;;0.60;;
50002;SDS011;35889;51.442;6.408;2022-08-01T00:20:50;0.60;;;0.60;;
50002;SDS011;35889;51.442;6.408;2022-08-01T00:23:15;0.70;;;0.70;;
50002;SDS011;35889;51.442;6.408;2022-08-01T00:25:40;0.70;;;0.70;;
50002;SDS011;35889;51.442;6.408;2022-08-01T00:28:06;0.70;;;0.70;;
50002;SDS011;35889;51.442;6.408;2022-08-01T00:30:33;0.65;;;0.65;;
50002;SDS011;35889;51.442;6.408;2022-08-01T00:32:59;0.60;;;0.60;;
50002;SDS011;35889;51.442;6.408;2022-08-01T00:35:24;0.60;;;0.60;;
50002;SDS011;35889;51.442;6.408;2022-08-01T00:37:49;0.68;;;0.68;;
50002;SDS011;35889;51.442;6.408;2022-08-01T00:40:16;0.70;;;0.70;;
50002;SDS011;35889;51.442;6.408;2022-08-01T00:42:41;0.63;;;0.63;;
50002;SDS011;35889;51.442;6.408;2022-08-01T00:45:07;0.70;;;0.70;;
50002;SDS011;35889;51.442;6.408;2022-08-01T00:47:32;0.70;;;0.70;;
50002;SDS011;35889;51.442;6.408;2022-08-01T00:49:57;0.60;;;0.60;;
50002;SDS011;35889;51.442;6.408;2022-08-01T00:52:23;0.60;;;0.60;;
50002;SDS011;35889;51.442;6.408;2022-08-01T00:54:48;0.70;;;0.70;;
50002;SDS011;35889;51.442;6.408;2022-08-01T00:57:14;0.70;;;0.70;;
50002;SDS011;35889;51.442;6.408;2022-08-01T00:59:39;0.70;;;0.70;;
50002;SDS011;35889;51.442;6.408;2022-08-01T01:02:05;0.70;;;0.70;;
50002;SDS011;35889;51.442;6.408;2022-08-01T01:04:30;0.60;;;0.60;;
50002;SDS011;35889;51.442;6.408;2022-08-01T01:09:50;0.60;;;0.60;;
50002;SDS011;35889;51.442;6.408;2022-08-01T01:17:17;0.65;;;0.65;;
50002;SDS011;35889;51.442;6.408;2022-08-01T01:19:47;0.60;;;0.60;;
50002;SDS011;35889;51.442;6.408;2022-08-01T01:29:59;0.60;;;0.60;;
50002;SDS011;35889;51.442;6.408;2022-08-01T01:32:32;0.60;;;0.60;;
50002;SDS011;35889;51.442;6.408;2022-08-01T01:34:59;0.60;;;0.60;;
50002;SDS011;35889;51.442;6.408;2022-08-01T01:37:25;0.60;;;0.60;;
50002;SDS011;35889;51.442;6.408;2022-08-01T01:39:51;0.60;;;0.60;;
50002;SDS011;35889;51.442;6.408;2022-08-01T01:42:18;0.60;;;0.60;;
50002;SDS011;35889;51.442;6.408;2022-08-01T01:44:45;0.63;;;0.63;;
50002;SDS011;35889;51.442;6.408;2022-08-01T01:47:13;0.60;;;0.60;;
50002;SDS011;35889;51.442;6.408;2022-08-01T01:49:39;0.60;;;0.60;;
50002;SDS011;35889;51.442;6.408;2022-08-01T01:52:06;0.60;;;0.60;;
50002;SDS011;35889;51.442;6.408;2022-08-01T01:54:33;0.60;;;0.60;;
50002;SDS011;35889;51.442;6.408;2022-08-01T01:56:59;0.60;;;0.60;;
50002;SDS011;35889;51.442;6.408;2022-08-01T01:59:25;0.60;;;0.60;;
50002;SDS011;35889;51.442;6.408;2022-08-01T02:01:52;0.60;;;0.60;;
50002;SDS011;35889;51.442;6.408;2022-08-01T02:04:19;0.60;;;0.60;;
50002;SDS011;35889;51.442;6.408;2022-08-01T02:06:45;0.60;;;0.60;;
50002;SDS011;35889;51.442;6.408;2022-08-01T02:09:11;0.60;;;0.60;;
50002;SDS011;35889;51.442;6.408;2022-08-01T02:11:39;0.60;;;0.60;;
50002;SDS011;35889;51.442;6.408;2022-08-01T02:14:05;0.60;;;0.60;;
50002;SDS011;35889;51.442;6.408;2022-08-01T02:16:34;0.60;;;0.60;;
50002;SDS011;35889;51.442;6.408;2022-08-01T02:18:59;0.60;;;0.60;;
50002;SDS011;35889;51.442;6.408;2022-08-01T02:21:27;0.60;;;0.60;;
50002;SDS011;35889;51.442;6.408;2022-08-01T02:23:53;0.60;;;0.60;;
50002;SDS011;35889;51.442;6.408;2022-08-01T02:26:19;0.60;;;0.60;;
50002;SDS011;35889;51.442;6.408;2022-08-01T02:28:50;0.63;;;0.63;;
50002;SDS011;35889;51.442;6.408;2022-08-01T02:31:19;0.60;;;0.60;;
50002;SDS011;35889;51.442;6.408;2022-08-01T02:33:46;0.70;;;0.70;;
50002;SDS011;35889;51.442;6.408;2022-08-01T02:36:13;0.60;;;0.60;;
50002;SDS011;35889;51.442;6.408;2022-08-01T02:38:40;0.60;;;0.60;;
50002;SDS011;35889;51.442;6.408;2022-08-01T02:41:11;0.60;;;0.60;;
50002;SDS011;35889;51.442;6.408;2022-08-01T02:43:38;0.60;;;0.60;;
50002;SDS011;35889;51.442;6.408;2022-08-01T02:46:06;0.68;;;0.68;;
50002;SDS011;35889;51.442;6.408;2022-08-01T02:48:33;0.60;;;0.60;;
50002;SDS011;35889;51.442;6.408;2022-08-01T02:51:00;0.60;;;0.60;;
50002;SDS011;35889;51.442;6.408;2022-08-01T02:53:26;0.60;;;0.60;;
50002;SDS011;35889;51.442;6.408;2022-08-01T02:55:52;0.70;;;0.70;;
50002;SDS011;35889;51.442;6.408;2022-08-01T02:58:18;0.60;;;0.60;;
50002;SDS011;35889;51.442;6.408;2022-08-01T03:00:44;0.70;;;0.70;;
50002;SDS011;35889;51.442;6.408;2022-08-01T03:03:11;0.70;;;0.70;;
50002;SDS011;35889;51.442;6.408;2022-08-01T03:05:37;0.70;;;0.70;;
50002;SDS011;35889;51.442;6.408;2022-08-01T03:08:05;0.70;;;0.70;;
50002;SDS011;35889;51.442;6.408;2022-08-01T03:10:31;0.70;;;0.70;;
50002;SDS011;35889;51.442;6.408;2022-08-01T03:12:57;0.70;;;0.70;;
50002;SDS011;35889;51.442;6.408;2022-08-01T03:15:24;0.60;;;0.60;;
50002;SDS011;35889;51.442;6.408;2022-08-01T03:17:50;0.70;;;0.70;;
50002;SDS011;35889;51.442;6.408;2022-08-01T03:20:16;0.68;;;0.68;;
50002;SDS011;35889;51.442;6.408;2022-08-01T03:22:43;0.63;;;0.63;;
50002;SDS011;35889;51.442;6.408;2022-08-01T03:25:10;0.70;;;0.70;;
50002;SDS011;35889;51.442;6.408;2022-08-01T03:27:36;0.70;;;0.70;;
50002;SDS011;35889;51.442;6.408;2022-08-01T03:30:02;0.70;;;0.70;;
50002;SDS011;35889;51.442;6.408;2022-08-01T03:32:28;0.60;;;0.60;;
50002;SDS011;35889;51.442;6.408;2022-08-01T03:34:54;0.60;;;0.60;;
50002;SDS011;35889;51.442;6.408;2022-08-01T03:37:21;0.70;;;0.70;;
50002;SDS011;35889;51.442;6.408;2022-08-01T03:39:50;0.60;;;0.60;;
50002;SDS011;35889;51.442;6.408;2022-08-01T03:42:18;0.60;;;0.60;;
50002;SDS011;35889;51.442;6.408;2022-08-01T03:44:47;0.70;;;0.70;;
50002;SDS011;35889;51.442;6.408;2022-08-01T03:47:13;0.60;;;0.60;;
50002;SDS011;35889;51.442;6.408;2022-08-01T03:49:42;0.60;;;0.60;;
50002;SDS011;35889;51.442;6.408;2022-08-01T03:52:09;0.80;;;0.80;;
50002;SDS011;35889;51.442;6.408;2022-08-01T03:54:35;0.60;;;0.60;;
50002;SDS011;35889;51.442;6.408;2022-08-01T03:57:01;0.60;;;0.60;;
50002;SDS011;35889;51.442;6.408;2022-08-01T03:59:27;0.70;;;0.70;;
50002;SDS011;35889;51.442;6.408;2022-08-01T04:01:52;0.60;;;0.60;;
50002;SDS011;35889;51.442;6.408;2022-08-01T04:04:18;0.60;;;0.60;;
50002;SDS011;35889;51.442;6.408;2022-08-01T04:06:44;0.60;;;0.60;;
50002;SDS011;35889;51.442;6.408;2022-08-01T04:09:10;0.60;;;0.60;;
50002;SDS011;35889;51.442;6.408;2022-08-01T04:11:35;0.70;;;0.70;;
50002;SDS011;35889;51.442;6.408;2022-08-01T04:14:01;0.70;;;0.70;;
50002;SDS011;35889;51.442;6.408;2022-08-01T04:16:26;0.63;;;0.63;;
50002;SDS011;35889;51.442;6.408;2022-08-01T04:18:51;0.70;;;0.70;;
50002;SDS011;35889;51.442;6.408;2022-08-01T04:21:24;0.60;;;0.60;;
50002;SDS011;35889;51.442;6.408;2022-08-01T04:23:52;0.70;;;0.70;;
50002;SDS011;35889;51.442;6.408;2022-08-01T04:26:19;0.70;;;0.70;;
50002;SDS011;35889;51.442;6.408;2022-08-01T04:28:44;0.60;;;0.60;;
50002;SDS011;35889;51.442;6.408;2022-08-01T04:31:11;0.70;;;0.70;;
50002;SDS011;35889;51.442;6.408;2022-08-01T04:33:40;0.63;;;0.63;;
50002;SDS011;35889;51.442;6.408;2022-08-01T04:36:07;0.60;;;0.60;;
50002;SDS011;35889;51.442;6.408;2022-08-01T04:38:34;0.68;;;0.68;;
50002;SDS011;35889;51.442;6.408;2022-08-01T04:41:01;0.70;;;0.70;;
50002;SDS011;35889;51.442;6.408;2022-08-01T04:43:27;0.60;;;0.60;;
50002;SDS011;35889;51.442;6.408;2022-08-01T04:45:52;0.70;;;0.70;;
50002;SDS011;35889;51.442;6.408;2022-08-01T04:48:19;0.70;;;0.70;;
50002;SDS011;35889;51.442;6.408;2022-08-01T04:50:44;0.70;;;0.70;;
50002;SDS011;35889;51.442;6.408;2022-08-01T04:53:13;0.70;;;0.70;;
50002;SDS011;35889;51.442;6.408;2022-08-01T04:55:39;0.60;;;0.60;;
50002;SDS011;35889;51.442;6.408;2022-08-01T04:58:04;0.60;;;0.60;;
50002;SDS011;35889;51.442;6.408;2022-08-01T05:00:30;0.60;;;0.60;;
50002;SDS011;35889;51.442;6.408;2022-08-01T05:02:55;0.70;;;0.70;;
50002;SDS011;35889;51.442;6.408;2022-08-01T05:05:20;0.70;;;0.70;;
50002;SDS011;35889;51.442;6.408;2022-08-01T05:07:45;0.70;;;0.70;;
50002;SDS011;35889;51.442;6.408;2022-08-01T05:10:11;0.70;;;0.70;;
50002;SDS011;35889;51.442;6.408;2022-08-01T05:12:36;0.70;;;0.70;;
50002;SDS011;35889;51.442;6.408;2022-08-01T05:15:02;0.70;;;0.70;;
50002;SDS011;35889;51.442;6.408;2022-08-01T05:17:27;0.70;;;0.70;;
50002;SDS011;35889;51.442;6.408;2022-08-01T05:19:52;0.60;;;0.60;;
50002;SDS011;35889;51.442;6.408;2022-08-01T05:22:17;0.68;;;0.68;;
50002;SDS011;35889;51.442;6.408;2022-08-01T05:24:43;0.70;;;0.70;;
50002;SDS011;35889;51.442;6.408;2022-08-01T05:27:08;0.70;;;0.70;;
50002;SDS011;35889;51.442;6.408;2022-08-01T05:29:34;0.60;;;0.60;;
50002;SDS011;35889;51.442;6.408;2022-08-01T05:31:59;0.70;;;0.70;;
50002;SDS011;35889;51.442;6.408;2022-08-01T05:34:25;0.60;;;0.60;;
50002;SDS011;35889;51.442;6.408;2022-08-01T05:36:51;0.70;;;0.70;;
50002;SDS011;35889;51.442;6.408;2022-08-01T05:39:16;0.70;;;0.70;;
50002;SDS011;35889;51.442;6.408;2022-08-01T05:41:41;0.70;;;0.70;;
50002;SDS011;35889;51.442;6.408;2022-08-01T05:44:07;0.70;;;0.70;;
50002;SDS011;35889;51.442;6.408;2022-08-01T05:46:33;0.70;;;0.70;;
50002;SDS011;35889;51.442;6.408;2022-08-01T05:48:59;0.70;;;0.70;;
50002;SDS011;35889;51.442;6.408;2022-08-01T05:51:24;0.60;;;0.60;;
50002;SDS011;35889;51.442;6.408;2022-08-01T05:53:49;0.70;;;0.70;;
50002;SDS011;35889;51.442;6.408;2022-08-01T05:56:15;0.70;;;0.70;;
50002;SDS011;35889;51.442;6.408;2022-08-01T05:58:40;0.70;;;0.70;;
50002;SDS011;35889;51.442;6.408;2022-08-01T06:01:05;0.70;;;0.70;;
50002;SDS011;35889;51.442;6.408;2022-08-01T06:03:31;0.70;;;0.70;;
50002;SDS011;35889;51.442;6.408;2022-08-01T06:05:58;0.70;;;0.70;;
50002;SDS011;35889;51.442;6.408;2022-08-01T06:08:24;0.70;;;0.70;;
50002;SDS011;35889;51.442;6.408;2022-08-01T06:10:49;0.60;;;0.60;;
50002;SDS011;35889;51.442;6.408;2022-08-01T06:13:14;0.70;;;0.70;;
50002;SDS011;35889;51.442;6.408;2022-08-01T06:15:40;0.70;;;0.70;;
50002;SDS011;35889;51.442;6.408;2022-08-01T06:18:05;0.70;;;0.70;;
50002;SDS011;35889;51.442;6.408;2022-08-01T06:20:30;0.70;;;0.70;;
50002;SDS011;35889;51.442;6.408;2022-08-01T06:22:56;0.70;;;0.70;;
50002;SDS011;35889;51.442;6.408;2022-08-01T06:25:21;0.70;;;0.70;;
50002;SDS011;35889;51.442;6.408;2022-08-01T06:27:46;0.70;;;0.70;;
50002;SDS011;35889;51.442;6.408;2022-08-01T06:30:12;0.60;;;0.60;;
50002;SDS011;35889;51.442;6.408;2022-08-01T06:32:37;0.60;;;0.60;;
50002;SDS011;35889;51.442;6.408;2022-08-01T06:35:03;0.70;;;0.70;;
50002;SDS011;35889;51.442;6.408;2022-08-01T06:37:31;0.70;;;0.70;;
50002;SDS011;35889;51.442;6.408;2022-08-01T06:42:27;0.70;;;0.70;;
50002;SDS011;35889;51.442;6.408;2022-08-01T06:44:53;0.70;;;0.70;;
50002;SDS011;35889;51.442;6.408;2022-08-01T06:47:18;0.70;;;0.70;;
50002;SDS011;35889;51.442;6.408;2022-08-01T06:49:43;0.70;;;0.70;;
50002;SDS011;35889;51.442;6.408;2022-08-01T06:52:08;0.70;;;0.70;;
50002;SDS011;35889;51.442;6.408;2022-08-01T06:54:34;0.70;;;0.70;;
50002;SDS011;35889;51.442;6.408;2022-08-01T06:56:59;0.70;;;0.70;;
50002;SDS011;35889;51.442;6.408;2022-08-01T06:59:24;0.70;;;0.70;;
50002;SDS011;35889;51.442;6.408;2022-08-01T07:01:49;0.70;;;0.70;;
50002;SDS011;35889;51.442;6.408;2022-08-01T07:04:15;0.70;;;0.70;;
50002;SDS011;35889;51.442;6.408;2022-08-01T07:06:40;0.70;;;0.70;;
50002;SDS011;35889;51.442;6.408;2022-08-01T07:09:05;0.70;;;0.70;;
50002;SDS011;35889;51.442;6.408;2022-08-01T07:11:30;0.70;;;0.70;;
50002;SDS011;35889;51.442;6.408;2022-08-01T07:13:56;0.70;;;0.70;;
50002;SDS011;35889;51.442;6.408;2022-08-01T07:16:21;0.70;;;0.70;;
50002;SDS011;35889;51.442;6.408;2022-08-01T07:18:47;0.70;;;0.70;;
50002;SDS011;35889;51.442;6.408;2022-08-01T07:21:12;0.70;;;0.70;;
50002;SDS011;35889;51.442;6.408;2022-08-01T07:23:37;0.70;;;0.70;;
50002;SDS011;35889;51.442;6.408;2022-08-01T07:26:03;0.80;;;0.80;;
50002;SDS011;35889;51.442;6.408;2022-08-01T07:28:29;0.70;;;0.70;;
50002;SDS011;35889;51.442;6.408;2022-08-01T07:30:54;0.70;;;0.70;;
50002;SDS011;35889;51.442;6.408;2022-08-01T07:33:20;0.70;;;0.70;;
50002;SDS011;35889;51.442;6.408;2022-08-01T07:35:45;0.80;;;0.80;;
50002;SDS011;35889;51.442;6.408;2022-08-01T07:38:10;0.70;;;0.70;;
50002;SDS011;35889;51.442;6.408;2022-08-01T07:40:36;0.70;;;0.70;;
50002;SDS011;35889;51.442;6.408;2022-08-01T07:43:01;0.80;;;0.80;;
50002;SDS011;35889;51.442;6.408;2022-08-01T07:45:27;0.80;;;0.80;;
50002;SDS011;35889;51.442;6.408;2022-08-01T07:47:52;0.80;;;0.80;;
50002;SDS011;35889;51.442;6.408;2022-08-01T07:50:17;0.80;;;0.80;;
50002;SDS011;35889;51.442;6.408;2022-08-01T07:52:43;0.80;;;0.80;;
50002;SDS011;35889;51.442;6.408;2022-08-01T07:55:08;0.70;;;0.70;;
50002;SDS011;35889;51.442;6.408;2022-08-01T07:57:34;0.80;;;0.80;;
50002;SDS011;35889;51.442;6.408;2022-08-01T07:59:59;0.80;;;0.80;;
50002;SDS011;35889;51.442;6.408;2022-08-01T08:02:25;0.80;;;0.80;;
50002;SDS011;35889;51.442;6.408;2022-08-01T08:04:50;0.70;;;0.70;;
50002;SDS011;35889;51.442;6.408;2022-08-01T08:07:15;0.70;;;0.70;;
50002;SDS011;35889;51.442;6.408;2022-08-01T08:09:40;0.70;;;0.70;;
50002;SDS011;35889;51.442;6.408;2022-08-01T08:12:06;0.70;;;0.70;;
50002;SDS011;35889;51.442;6.408;2022-08-01T08:14:31;0.70;;;0.70;;
50002;SDS011;35889;51.442;6.408;2022-08-01T08:16:56;0.80;;;0.80;;
50002;SDS011;35889;51.442;6.408;2022-08-01T08:19:22;0.77;;;0.77;;
50002;SDS011;35889;51.442;6.408;2022-08-01T08:21:47;0.65;;;0.65;;
50002;SDS011;35889;51.442;6.408;2022-08-01T08:24:12;0.70;;;0.70;;
50002;SDS011;35889;51.442;6.408;2022-08-01T08:26:48;0.80;;;0.80;;
50002;SDS011;35889;51.442;6.408;2022-08-01T08:29:14;0.70;;;0.70;;
50002;SDS011;35889;51.442;6.408;2022-08-01T08:31:39;0.70;;;0.70;;
50002;SDS011;35889;51.442;6.408;2022-08-01T08:34:05;0.80;;;0.80;;
50002;SDS011;35889;51.442;6.408;2022-08-01T08:36:30;0.80;;;0.80;;
50002;SDS011;35889;51.442;6.408;2022-08-01T08:38:56;0.80;;;0.80;;
50002;SDS011;35889;51.442;6.408;2022-08-01T08:41:22;0.80;;;0.80;;
50002;SDS011;35889;51.442;6.408;2022-08-01T08:43:47;0.70;;;0.70;;
50002;SDS011;35889;51.442;6.408;2022-08-01T08:46:12;0.70;;;0.70;;
50002;SDS011;35889;51.442;6.408;2022-08-01T08:48:39;0.75;;;0.75;;
50002;SDS011;35889;51.442;6.408;2022-08-01T08:51:04;0.80;;;0.80;;
50002;SDS011;35889;51.442;6.408;2022-08-01T08:53:30;0.80;;;0.80;;
50002;SDS011;35889;51.442;6.408;2022-08-01T08:55:56;0.80;;;0.80;;
50002;SDS011;35889;51.442;6.408;2022-08-01T08:58:22;0.70;;;0.70;;
50002;SDS011;35889;51.442;6.408;2022-08-01T09:00:50;0.80;;;0.80;;
50002;SDS011;35889;51.442;6.408;2022-08-01T09:03:15;0.80;;;0.80;;
50002;SDS011;35889;51.442;6.408;2022-08-01T09:05:41;0.80;;;0.80;;
50002;SDS011;35889;51.442;6.408;2022-08-01T09:08:06;0.80;;;0.80;;
50002;SDS011;35889;51.442;6.408;2022-08-01T09:10:32;0.80;;;0.80;;
50002;SDS011;35889;51.442;6.408;2022-08-01T09:15:39;0.80;;;0.80;;
50002;SDS011;35889;51.442;6.408;2022-08-01T09:18:05;0.80;;;0.80;;
50002;SDS011;35889;51.442;6.408;2022-08-01T09:20:31;0.80;;;0.80;;
50002;SDS011;35889;51.442;6.408;2022-08-01T09:22:56;0.80;;;0.80;;
50002;SDS011;35889;51.442;6.408;2022-08-01T09:25:21;0.90;;;0.90;;
50002;SDS011;35889;51.442;6.408;2022-08-01T09:27:47;0.70;;;0.70;;
50002;SDS011;35889;51.442;6.408;2022-08-01T09:30:16;0.80;;;0.80;;
50002;SDS011;35889;51.442;6.408;2022-08-01T09:32:58;0.70;;;0.70;;
50002;SDS011;35889;51.442;6.408;2022-08-01T09:35:27;0.80;;;0.80;;
50002;SDS011;35889;51.442;6.408;2022-08-01T09:38:00;0.80;;;0.80;;
50002;SDS011;35889;51.442;6.408;2022-08-01T09:40:45;0.80;;;0.80;;
50002;SDS011;35889;51.442;6.408;2022-08-01T09:43:11;0.80;;;0.80;;
50002;SDS011;35889;51.442;6.408;2022-08-01T09:45:37;0.80;;;0.80;;
50002;SDS011;35889;51.442;6.408;2022-08-01T09:48:05;0.80;;;0.80;;
50002;SDS011;35889;51.442;6.408;2022-08-01T09:50:38;0.80;;;0.80;;
50002;SDS011;35889;51.442;6.408;2022-08-01T09:53:03;0.80;;;0.80;;
50002;SDS011;35889;51.442;6.408;2022-08-01T09:55:29;0.80;;;0.80;;
50002;SDS011;35889;51.442;6.408;2022-08-01T09:57:54;0.80;;;0.80;;
50002;SDS011;35889;51.442;6.408;2022-08-01T10:00:20;0.80;;;0.80;;
50002;SDS011;35889;51.442;6.408;2022-08-01T10:02:45;0.80;;;0.80;;
50002;SDS011;35889;51.442;6.408;2022-08-01T10:05:10;0.80;;;0.80;;
50002;SDS011;35889;51.442;6.408;2022-08-01T10:07:36;0.90;;;0.90;;
50002;SDS011;35889;51.442;6.408;2022-08-01T10:10:19;0.80;;;0.80;;
50002;SDS011;35889;51.442;6.408;2022-08-01T10:12:44;0.80;;;0.80;;
50002;SDS011;35889;51.442;6.408;2022-08-01T10:15:10;0.80;;;0.80;;
50002;SDS011;35889;51.442;6.408;2022-08-01T10:17:36;0.80;;;0.80;;
50002;SDS011;35889;51.442;6.408;2022-08-01T10:20:03;0.70;;;0.70;;
50002;SDS011;35889;51.442;6.408;2022-08-01T10:22:29;0.70;;;0.70;;
50002;SDS011;35889;51.442;6.408;2022-08-01T10:24:55;0.70;;;0.70;;
50002;SDS011;35889;51.442;6.408;2022-08-01T10:27:20;0.70;;;0.70;;
50002;SDS011;35889;51.442;6.408;2022-08-01T10:29:57;0.80;;;0.80;;
50002;SDS011;35889;51.442;6.408;2022-08-01T10:32:22;0.75;;;0.75;;
50002;SDS011;35889;51.442;6.408;2022-08-01T10:34:49;0.80;;;0.80;;
50002;SDS011;35889;51.442;6.408;2022-08-01T10:37:14;0.80;;;0.80;;
50002;SDS011;35889;51.442;6.408;2022-08-01T10:39:39;0.80;;;0.80;;
50002;SDS011;35889;51.442;6.408;2022-08-01T10:42:05;0.80;;;0.80;;
50002;SDS011;35889;51.442;6.408;2022-08-01T10:44:31;0.80;;;0.80;;
50002;SDS011;35889;51.442;6.408;2022-08-01T10:47:05;0.70;;;0.70;;
50002;SDS011;35889;51.442;6.408;2022-08-01T10:49:31;0.80;;;0.80;;
50002;SDS011;35889;51.442;6.408;2022-08-01T10:51:59;0.80;;;0.80;;
50002;SDS011;35889;51.442;6.408;2022-08-01T10:54:25;0.73;;;0.73;;
50002;SDS011;35889;51.442;6.408;2022-08-01T10:56:51;0.80;;;0.80;;
50002;SDS011;35889;51.442;6.408;2022-08-01T10:59:20;0.70;;;0.70;;
50002;SDS011;35889;51.442;6.408;2022-08-01T11:01:55;0.80;;;0.80;;
50002;SDS011;35889;51.442;6.408;2022-08-01T11:04:24;0.70;;;0.70;;
50002;SDS011;35889;51.442;6.408;2022-08-01T11:07:03;0.70;;;0.70;;
50002;SDS011;35889;51.442;6.408;2022-08-01T11:09:39;0.80;;;0.80;;
50002;SDS011;35889;51.442;6.408;2022-08-01T11:12:08;0.77;;;0.77;;
50002;SDS011;35889;51.442;6.408;2022-08-01T11:22:27;0.90;;;0.90;;
50002;SDS011;35889;51.442;6.408;2022-08-01T11:24:55;0.80;;;0.80;;
50002;SDS011;35889;51.442;6.408;2022-08-01T11:27:27;0.90;;;0.90;;
50002;SDS011;35889;51.442;6.408;2022-08-01T11:30:21;0.90;;;0.90;;
50002;SDS011;35889;51.442;6.408;2022-08-01T11:32:47;0.88;;;0.88;;
50002;SDS011;35889;51.442;6.408;2022-08-01T11:35:13;0.90;;;0.90;;
50002;SDS011;35889;51.442;6.408;2022-08-01T11:37:38;0.80;;;0.80;;
50002;SDS011;35889;51.442;6.408;2022-08-01T11:40:13;0.80;;;0.80;;
50002;SDS011;35889;51.442;6.408;2022-08-01T11:42:39;0.80;;;0.80;;
50002;SDS011;35889;51.442;6.408;2022-08-01T11:45:04;0.80;;;0.80;;
50002;SDS011;35889;51.442;6.408;2022-08-01T11:47:44;0.73;;;0.73;;
50002;SDS011;35889;51.442;6.408;2022-08-01T11:53:12;0.80;;;0.80;;
50002;SDS011;35889;51.442;6.408;2022-08-01T11:55:43;0.80;;;0.80;;
50002;SDS011;35889;51.442;6.408;2022-08-01T11:58:10;0.80;;;0.80;;
50002;SDS011;35889;51.442;6.408;2022-08-01T12:00:35;0.80;;;0.80;;
50002;SDS011;35889;51.442;6.408;2022-08-01T12:03:03;0.80;;;0.80;;
50002;SDS011;35889;51.442;6.408;2022-08-01T12:05:29;0.90;;;0.90;;
50002;SDS011;35889;51.442;6.408;2022-08-01T12:07:55;0.80;;;0.80;;
50002;SDS011;35889;51.442;6.408;2022-08-01T12:10:21;0.80;;;0.80;;
50002;SDS011;35889;51.442;6.408;2022-08-01T12:12:51;0.80;;;0.80;;
50002;SDS011;35889;51.442;6.408;2022-08-01T12:15:17;0.80;;;0.80;;
50002;SDS011;35889;51.442;6.408;2022-08-01T12:17:44;0.80;;;0.80;;
50002;SDS011;35889;51.442;6.408;2022-08-01T12:20:10;0.90;;;0.90;;
50002;SDS011;35889;51.442;6.408;2022-08-01T12:22:36;0.90;;;0.90;;
50002;SDS011;35889;51.442;6.408;2022-08-01T12:25:05;0.80;;;0.80;;
50002;SDS011;35889;51.442;6.408;2022-08-01T12:27:31;0.80;;;0.80;;
50002;SDS011;35889;51.442;6.408;2022-08-01T12:29:57;0.80;;;0.80;;
50002;SDS011;35889;51.442;6.408;2022-08-01T12:32:24;0.80;;;0.80;;
50002;SDS011;35889;51.442;6.408;2022-08-01T12:34:50;0.70;;;0.70;;
50002;SDS011;35889;51.442;6.408;2022-08-01T12:37:15;0.80;;;0.80;;
50002;SDS011;35889;51.442;6.408;2022-08-01T12:39:41;0.70;;;0.70;;
50002;SDS011;35889;51.442;6.408;2022-08-01T12:42:07;0.80;;;0.80;;
50002;SDS011;35889;51.442;6.408;2022-08-01T12:44:32;0.80;;;0.80;;
50002;SDS011;35889;51.442;6.408;2022-08-01T12:46:58;0.80;;;0.80;;
50002;SDS011;35889;51.442;6.408;2022-08-01T12:49:24;0.80;;;0.80;;
50002;SDS011;35889;51.442;6.408;2022-08-01T12:51:50;0.70;;;0.70;;
50002;SDS011;35889;51.442;6.408;2022-08-01T12:54:15;0.80;;;0.80;;
50002;SDS011;35889;51.442;6.408;2022-08-01T12:56:41;0.80;;;0.80;;
50002;SDS011;35889;51.442;6.408;2022-08-01T12:59:18;0.80;;;0.80;;
50002;SDS011;35889;51.442;6.408;2022-08-01T13:01:45;0.90;;;0.90;;
50002;SDS011;35889;51.442;6.408;2022-08-01T13:04:10;0.80;;;0.80;;
50002;SDS011;35889;51.442;6.408;2022-08-01T13:06:35;0.80;;;0.80;;
50002;SDS011;35889;51.442;6.408;2022-08-01T13:09:08;0.70;;;0.70;;
50002;SDS011;35889;51.442;6.408;2022-08-01T13:11:35;0.80;;;0.80;;
50002;SDS011;35889;51.442;6.408;2022-08-01T13:14:01;0.80;;;0.80;;
50002;SDS011;35889;51.442;6.408;2022-08-01T13:16:26;0.80;;;0.80;;
50002;SDS011;35889;51.442;6.408;2022-08-01T13:18:52;0.80;;;0.80;;
50002;SDS011;35889;51.442;6.408;2022-08-01T13:21:21;0.80;;;0.80;;
50002;SDS011;35889;51.442;6.408;2022-08-01T13:26:41;0.70;;;0.70;;
50002;SDS011;35889;51.442;6.408;2022-08-01T13:29:07;0.75;;;0.75;;
50002;SDS011;35889;51.442;6.408;2022-08-01T13:31:35;0.80;;;0.80;;
50002;SDS011;35889;51.442;6.408;2022-08-01T13:34:01;0.70;;;0.70;;
50002;SDS011;35889;51.442;6.408;2022-08-01T13:36:26;0.73;;;0.73;;
50002;SDS011;35889;51.442;6.408;2022-08-01T13:38:59;0.80;;;0.80;;
50002;SDS011;35889;51.442;6.408;2022-08-01T13:41:43;0.80;;;0.80;;
50002;SDS011;35889;51.442;6.408;2022-08-01T13:44:09;0.77;;;0.77;;
50002;SDS011;35889;51.442;6.408;2022-08-01T13:46:36;0.80;;;0.80;;
50002;SDS011;35889;51.442;6.408;2022-08-01T13:49:02;0.80;;;0.80;;
50002;SDS011;35889;51.442;6.408;2022-08-01T13:51:27;0.80;;;0.80;;
50002;SDS011;35889;51.442;6.408;2022-08-01T13:53:53;0.70;;;0.70;;
50002;SDS011;35889;51.442;6.408;2022-08-01T13:56:18;0.70;;;0.70;;
50002;SDS011;35889;51.442;6.408;2022-08-01T13:58:45;0.80;;;0.80;;
50002;SDS011;35889;51.442;6.408;2022-08-01T14:01:10;1.00;;;1.00;;
50002;SDS011;35889;51.442;6.408;2022-08-01T14:03:35;0.90;;;0.90;;
50002;SDS011;35889;51.442;6.408;2022-08-01T14:06:01;1.00;;;1.00;;
50002;SDS011;35889;51.442;6.408;2022-08-01T14:08:27;0.90;;;0.90;;
50002;SDS011;35889;51.442;6.408;2022-08-01T14:10:52;0.90;;;0.90;;
50002;SDS011;35889;51.442;6.408;2022-08-01T14:13:18;0.98;;;0.98;;
50002;SDS011;35889;51.442;6.408;2022-08-01T14:15:44;0.90;;;0.90;;
50002;SDS011;35889;51.442;6.408;2022-08-01T14:18:09;0.80;;;0.80;;
50002;SDS011;35889;51.442;6.408;2022-08-01T14:20:34;1.00;;;1.00;;
50002;SDS011;35889;51.442;6.408;2022-08-01T14:23:00;1.10;;;1.10;;
50002;SDS011;35889;51.442;6.408;2022-08-01T14:25:25;1.00;;;1.00;;
50002;SDS011;35889;51.442;6.408;2022-08-01T14:27:50;0.77;;;0.77;;
50002;SDS011;35889;51.442;6.408;2022-08-01T14:30:16;0.80;;;0.80;;
50002;SDS011;35889;51.442;6.408;2022-08-01T14:32:41;0.80;;;0.80;;
50002;SDS011;35889;51.442;6.408;2022-08-01T14:35:06;0.95;;;0.95;;
50002;SDS011;35889;51.442;6.408;2022-08-01T14:37:32;0.82;;;0.82;;
50002;SDS011;35889;51.442;6.408;2022-08-01T14:39:58;0.80;;;0.80;;
50002;SDS011;35889;51.442;6.408;2022-08-01T14:42:24;0.80;;;0.80;;
50002;SDS011;35889;51.442;6.408;2022-08-01T14:44:49;0.80;;;0.80;;
50002;SDS011;35889;51.442;6.408;2022-08-01T14:47:14;0.80;;;0.80;;
50002;SDS011;35889;51.442;6.408;2022-08-01T14:49:40;0.80;;;0.80;;
50002;SDS011;35889;51.442;6.408;2022-08-01T14:52:05;0.80;;;0.80;;
50002;SDS011;35889;51.442;6.408;2022-08-01T14:54:30;0.80;;;0.80;;
50002;SDS011;35889;51.442;6.408;2022-08-01T14:56:56;0.80;;;0.80;;
50002;SDS011;35889;51.442;6.408;2022-08-01T14:59:21;0.80;;;0.80;;
50002;SDS011;35889;51.442;6.408;2022-08-01T15:01:46;0.70;;;0.70;;
50002;SDS011;35889;51.442;6.408;2022-08-01T15:04:12;0.80;;;0.80;;
50002;SDS011;35889;51.442;6.408;2022-08-01T15:06:37;0.80;;;0.80;;
50002;SDS011;35889;51.442;6.408;2022-08-01T15:09:03;0.85;;;0.85;;
50002;SDS011;35889;51.442;6.408;2022-08-01T15:11:28;1.10;;;1.10;;
50002;SDS011;35889;51.442;6.408;2022-08-01T15:13:53;0.80;;;0.80;;
50002;SDS011;35889;51.442;6.408;2022-08-01T15:16:37;0.90;;;0.90;;
50002;SDS011;35889;51.442;6.408;2022-08-01T15:19:03;1.00;;;1.00;;